Time;durP1;ratioP1;P1;durP2;ratioP2;P2;SDS_P1;SDS_P2;PMS_P1;PMS_P2;Temp;Humidity;BMP_temperature;BMP_pressure;BME280_temperature;BME280_humidity;BME280_pressure;Samples;Min_cycle;Max_cycle;Signal;HPM_P1;HPM_P2
2023/03/16 00:01:35;;;;;;;;;;;;;;;0.14;88.30;100859.09;5136250;27;19911;-70
2023/03/16 00:04:01;;;;;;;;;;;;;;;0.10;88.09;100863.66;5136576;27;19911;-69
2023/03/16 00:06:26;;;;;;;;;;;;;;;0.08;88.48;100862.91;5136398;27;19918;-69
2023/03/16 00:08:51;;;;;;;;;;;;;;;0.03;88.98;100870.22;5136397;27;19919;-70
2023/03/16 00:11:17;;;;;;;;;;;;;;;-0.04;89.61;100874.13;5135549;27;19912;-72
2023/03/16 00:13:42;;;;;;;;;;;;;;;-0.06;89.36;100881.22;5136559;27;19937;-69
2023/03/16 00:16:07;;;;;;;;;;;;;;;-0.08;89.74;100883.94;5136666;27;19911;-70
2023/03/16 00:18:37;;;;;;;;;;;;;;;-0.08;89.89;100883.09;5136763;27;19956;-70
2023/03/16 00:21:04;;;;;;;;;;;;;;;-0.08;90.01;100890.94;5136110;27;19911;-70
2023/03/16 00:23:34;;;;;;;;;;;;;;;-0.06;89.85;100891.69;5135904;27;20370;-71
2023/03/16 00:26:01;;;;;;;;;;;;;;;-0.07;89.95;100895.25;5135950;27;19932;-72
2023/03/16 00:28:28;;;;;;;;;;;;;;;-0.11;90.32;100899.81;5135528;27;19918;-70
2023/03/16 00:30:58;;;;;;;;;;;;;;;-0.14;90.10;100904.41;5135646;27;19922;-70
2023/03/16 00:33:23;;;;;;;;;;;;;;;-0.15;90.28;100894.88;5135849;27;19915;-71
2023/03/16 00:35:48;;;;;;;;;;;;;;;-0.17;90.41;100900.19;5135730;27;19934;-70
2023/03/16 00:38:16;;;;;;;;;;;;;;;-0.16;90.55;100911.50;5135626;27;19912;-71
2023/03/16 00:40:42;;;;;;;;;;;;;;;-0.14;90.55;100909.66;5135374;27;19911;-71
2023/03/16 00:43:07;;;;;;;;;;;;;;;-0.12;90.37;100910.41;5135536;27;20396;-72
2023/03/16 00:45:33;;;;;;;;;;;;;;;-0.11;90.82;100912.91;5135953;27;19912;-69
2023/03/16 00:47:58;;;;;;;;;;;;;;;-0.10;90.69;100911.16;5135320;27;20002;-71
2023/03/16 00:50:23;;;;;;;;;;;;;;;-0.06;90.56;100928.34;5135642;27;19919;-70
2023/03/16 00:52:52;;;;;;;;;;;;;;;-0.07;90.66;100926.66;5117057;27;19916;-73
2023/03/16 00:55:17;;;;;;;;;;;;;;;-0.04;90.42;100932.56;5135324;27;19912;-70
2023/03/16 00:57:43;;;;;;;;;;;;;;;-0.01;90.77;100926.28;5135090;27;19912;-69
2023/03/16 01:00:11;;;;;;;;;;;;;;;0.06;90.60;100932.88;5116793;27;20115;-70
2023/03/16 01:02:37;;;;;;;;;;;;;;;0.17;90.95;100940.94;5136023;27;20331;-70
2023/03/16 01:05:04;;;;;;;;;;;;;;;0.21;90.60;100937.19;5138097;27;20018;-70
2023/03/16 01:07:30;;;;;;;;;;;;;;;0.24;90.15;100942.22;5118945;27;19911;-71
2023/03/16 01:09:55;;;;;;;;;;;;;;;0.28;90.18;100935.88;5136676;27;19919;-69
2023/03/16 01:12:20;;;;;;;;;;;;;;;0.26;90.24;100942.97;5136688;27;19912;-70
2023/03/16 01:14:46;;;;;;;;;;;;;;;0.23;89.91;100939.72;5136005;27;19911;-70
2023/03/16 01:17:12;;;;;;;;;;;;;;;0.25;90.50;100943.91;5135053;27;19917;-71
2023/03/16 01:19:38;;;;;;;;;;;;;;;0.24;90.58;100939.63;5135038;27;19923;-71
2023/03/16 01:22:05;;;;;;;;;;;;;;;0.18;90.68;100947.84;5134783;27;19912;-73
2023/03/16 01:24:30;;;;;;;;;;;;;;;0.12;90.85;100942.97;5134705;27;19911;-69
2023/03/16 01:26:55;;;;;;;;;;;;;;;0.02;91.21;100952.31;5134682;27;19972;-70
2023/03/16 01:29:21;;;;;;;;;;;;;;;-0.09;91.84;100957.34;5116194;27;20451;-70
2023/03/16 01:31:47;;;;;;;;;;;;;;;-0.20;91.77;100955.34;5134603;27;20014;-70
2023/03/16 01:34:16;;;;;;;;;;;;;;;-0.29;93.45;100957.63;5134611;27;19911;-70
2023/03/16 01:36:43;;;;;;;;;;;;;;;-0.29;93.37;100962.88;5134351;27;19911;-71
2023/03/16 01:39:09;;;;;;;;;;;;;;;-0.33;93.75;100960.44;5134352;27;20370;-71
2023/03/16 01:41:34;;;;;;;;;;;;;;;-0.36;93.87;100973.69;5134051;27;20270;-71
2023/03/16 01:44:00;;;;;;;;;;;;;;;-0.43;93.98;100961.06;5134596;27;19912;-71
2023/03/16 01:46:27;;;;;;;;;;;;;;;-0.48;94.55;100973.56;5134328;27;20277;-70
2023/03/16 01:48:55;;;;;;;;;;;;;;;-0.55;94.95;100977.47;5134498;27;19972;-71
2023/03/16 01:51:36;;;;;;;;;;;;;;;-0.58;95.21;100981.06;5134244;27;20006;-70
2023/03/16 01:54:19;;;;;;;;;;;;;;;-0.59;95.44;100984.63;5134168;27;19911;-70
2023/03/16 01:56:50;;;;;;;;;;;;;;;-0.59;96.28;100983.78;5134017;27;20419;-71
2023/03/16 01:59:17;;;;;;;;;;;;;;;-0.52;96.00;100985.13;5134020;27;19911;-70
2023/03/16 02:01:43;;;;;;;;;;;;;;;-0.42;96.34;100992.38;5133958;27;19918;-70
2023/03/16 02:04:17;;;;;;;;;;;;;;;-0.30;95.97;100996.03;5133981;27;19916;-70
2023/03/16 02:06:43;;;;;;;;;;;;;;;-0.22;95.86;100995.63;5115689;27;19911;-70
2023/03/16 02:09:09;;;;;;;;;;;;;;;-0.17;95.80;101001.44;5134110;27;20036;-70
2023/03/16 02:11:35;;;;;;;;;;;;;;;-0.19;95.59;101004.16;5115599;27;20515;-69
2023/03/16 02:14:04;;;;;;;;;;;;;;;-0.27;95.05;101009.00;5133864;27;19925;-69
2023/03/16 02:16:29;;;;;;;;;;;;;;;-0.40;95.52;101007.97;5133640;27;19912;-70
2023/03/16 02:18:54;;;;;;;;;;;;;;;-0.47;96.14;101007.50;5133470;27;20428;-69
2023/03/16 02:21:33;;;;;;;;;;;;;;;-0.44;96.79;101014.31;5133398;27;19912;-70
2023/03/16 02:24:01;;;;;;;;;;;;;;;-0.35;96.42;101019.88;5133779;27;19959;-71
2023/03/16 02:26:46;;;;;;;;;;;;;;;-0.24;96.61;101018.44;5133534;27;20421;-69
2023/03/16 02:29:24;;;;;;;;;;;;;;;-0.14;96.26;101028.28;5132794;27;19959;-72
2023/03/16 02:31:50;;;;;;;;;;;;;;;-0.06;95.78;101030.47;5133625;27;20012;-71
2023/03/16 02:34:17;;;;;;;;;;;;;;;-0.02;95.69;101034.56;5132813;27;20457;-71
2023/03/16 02:36:44;;;;;;;;;;;;;;;0.01;95.51;101033.59;5133450;27;20355;-70
2023/03/16 02:39:10;;;;;;;;;;;;;;;-0.01;95.16;101033.66;5115206;27;20345;-69
2023/03/16 02:41:35;;;;;;;;;;;;;;;-0.04;95.16;101041.69;5114800;27;19950;-70
2023/03/16 02:44:05;;;;;;;;;;;;;;;-0.09;94.92;101043.72;5133261;27;19911;-69
2023/03/16 02:46:34;;;;;;;;;;;;;;;-0.13;95.43;101042.22;5133463;27;19964;-70
2023/03/16 02:49:20;;;;;;;;;;;;;;;-0.10;95.26;101042.88;5133418;27;19947;-72
2023/03/16 02:51:46;;;;;;;;;;;;;;;-0.05;95.68;101058.31;5133301;28;19915;-70
2023/03/16 02:54:11;;;;;;;;;;;;;;;0.04;95.61;101059.59;5133122;28;19911;-70
2023/03/16 02:56:37;;;;;;;;;;;;;;;0.03;95.58;101052.66;5133375;28;19911;-70
2023/03/16 02:59:02;;;;;;;;;;;;;;;0.02;95.32;101054.44;5133375;28;19912;-69
2023/03/16 03:01:27;;;;;;;;;;;;;;;0.03;94.89;101058.75;5133306;28;19916;-71
2023/03/16 03:03:53;;;;;;;;;;;;;;;0.02;95.60;101049.22;5133439;28;19911;-70
2023/03/16 03:06:18;;;;;;;;;;;;;;;-0.01;95.34;101054.59;5133317;28;19915;-70
2023/03/16 03:08:43;;;;;;;;;;;;;;;-0.02;95.46;101060.75;5133009;28;20362;-69
2023/03/16 03:11:09;;;;;;;;;;;;;;;0.00;95.52;101056.31;5132964;28;20370;-70
2023/03/16 03:13:37;;;;;;;;;;;;;;;0.04;95.78;101063.06;5133106;28;19911;-71
2023/03/16 03:16:02;;;;;;;;;;;;;;;0.05;95.62;101059.50;5133230;28;19911;-70
2023/03/16 03:18:27;;;;;;;;;;;;;;;0.04;95.19;101076.16;5133298;28;19938;-69
2023/03/16 03:20:53;;;;;;;;;;;;;;;0.03;95.55;101068.38;5134037;28;19912;-70
2023/03/16 03:23:18;;;;;;;;;;;;;;;0.02;95.71;101072.78;5134045;28;19954;-70
2023/03/16 03:25:44;;;;;;;;;;;;;;;0.04;95.34;101077.91;5134450;28;20005;-69
2023/03/16 03:28:10;;;;;;;;;;;;;;;0.06;95.57;101076.06;5134953;28;20277;-69
2023/03/16 03:30:36;;;;;;;;;;;;;;;0.03;95.67;101082.31;5134953;28;20006;-69
2023/03/16 03:33:01;;;;;;;;;;;;;;;0.07;95.39;101091.69;5133825;28;19916;-70
2023/03/16 03:35:27;;;;;;;;;;;;;;;0.11;95.29;101093.19;5134457;28;19946;-70
2023/03/16 03:37:52;;;;;;;;;;;;;;;0.11;95.60;101093.19;5134316;28;19916;-73
2023/03/16 03:40:18;;;;;;;;;;;;;;;0.08;95.91;101093.38;5133247;28;19918;-70
2023/03/16 03:42:43;;;;;;;;;;;;;;;0.11;95.90;101090.56;5114697;28;19911;-71
2023/03/16 03:45:11;;;;;;;;;;;;;;;0.18;95.36;101098.91;5135452;27;19911;-69
2023/03/16 03:47:37;;;;;;;;;;;;;;;0.15;95.26;101107.78;5118435;27;19911;-71
2023/03/16 03:50:03;;;;;;;;;;;;;;;0.13;95.47;101099.19;5136832;27;20351;-71
2023/03/16 03:52:28;;;;;;;;;;;;;;;0.11;95.82;101092.34;5136485;27;20419;-69
2023/03/16 03:54:54;;;;;;;;;;;;;;;0.08;95.91;101101.22;5136435;27;19915;-71
2023/03/16 03:57:19;;;;;;;;;;;;;;;0.08;95.78;101100.38;5118041;27;19911;-72
2023/03/16 03:59:44;;;;;;;;;;;;;;;0.00;95.93;101108.69;5136595;27;19919;-73
2023/03/16 04:02:10;;;;;;;;;;;;;;;-0.02;96.35;101107.91;5117997;27;20007;-72
2023/03/16 04:04:35;;;;;;;;;;;;;;;-0.04;96.62;101115.00;5136207;27;19911;-69
2023/03/16 04:07:01;;;;;;;;;;;;;;;-0.12;96.46;101109.34;5136236;27;19918;-71
2023/03/16 04:09:26;;;;;;;;;;;;;;;-0.23;96.14;101117.81;5136514;27;19912;-69
2023/03/16 04:11:52;;;;;;;;;;;;;;;-0.33;96.79;101122.69;5137977;27;19911;-70
2023/03/16 04:14:17;;;;;;;;;;;;;;;-0.38;97.79;101129.09;5119620;27;19961;-68
2023/03/16 04:16:43;;;;;;;;;;;;;;;-0.36;97.99;101128.09;5136433;27;19911;-68
2023/03/16 04:19:09;;;;;;;;;;;;;;;-0.34;98.08;101130.63;5136043;27;19941;-68
2023/03/16 04:21:34;;;;;;;;;;;;;;;-0.39;98.32;101130.88;5135502;27;20225;-69
2023/03/16 04:24:02;;;;;;;;;;;;;;;-0.46;99.02;101140.00;5136001;27;19956;-70
2023/03/16 04:26:28;;;;;;;;;;;;;;;-0.49;98.96;101132.31;5136106;27;20207;-70
2023/03/16 04:28:53;;;;;;;;;;;;;;;-0.48;98.81;101134.00;5142211;27;20009;-71
2023/03/16 04:31:19;;;;;;;;;;;;;;;-0.50;98.76;101143.72;5136172;27;19915;-69
2023/03/16 04:33:44;;;;;;;;;;;;;;;-0.56;99.45;101144.03;5135603;27;20270;-69
2023/03/16 04:36:10;;;;;;;;;;;;;;;-0.61;99.63;101146.03;5118416;27;19918;-68
2023/03/16 04:38:36;;;;;;;;;;;;;;;-0.60;99.27;101152.13;5116162;28;19923;-69
2023/03/16 04:41:02;;;;;;;;;;;;;;;-0.60;99.88;101152.97;5096929;28;19912;-67
2023/03/16 04:43:28;;;;;;;;;;;;;;;-0.66;100.00;101153.28;5097860;28;20014;-71
2023/03/16 04:45:53;;;;;;;;;;;;;;;-0.69;100.00;101159.53;5131110;27;19973;-68
2023/03/16 04:48:19;;;;;;;;;;;;;;;-0.66;100.00;101159.38;5136723;27;19911;-66
2023/03/16 04:50:46;;;;;;;;;;;;;;;-0.66;100.00;101163.75;5136197;27;19911;-71
2023/03/16 04:53:12;;;;;;;;;;;;;;;-0.66;100.00;101179.44;5136023;27;20312;-69
2023/03/16 04:55:37;;;;;;;;;;;;;;;-0.68;100.00;101169.06;5135798;27;19911;-70
2023/03/16 04:58:03;;;;;;;;;;;;;;;-0.70;100.00;101173.53;5135500;27;19911;-69
2023/03/16 05:00:28;;;;;;;;;;;;;;;-0.67;100.00;101185.59;5135082;27;19955;-68
2023/03/16 05:02:53;;;;;;;;;;;;;;;-0.66;100.00;101184.69;5135669;27;19919;-69
2023/03/16 05:05:20;;;;;;;;;;;;;;;-0.64;100.00;101188.91;5134991;27;20239;-69
2023/03/16 05:07:45;;;;;;;;;;;;;;;-0.59;100.00;101193.88;5135271;27;19969;-69
2023/03/16 05:10:12;;;;;;;;;;;;;;;-0.62;100.00;101194.06;5135327;27;19920;-68
2023/03/16 05:12:37;;;;;;;;;;;;;;;-0.57;100.00;101199.91;5135527;27;19912;-69
2023/03/16 05:15:03;;;;;;;;;;;;;;;-0.50;100.00;101190.81;5135529;27;20385;-69
2023/03/16 05:17:29;;;;;;;;;;;;;;;-0.46;100.00;101201.94;5135665;27;19923;-70
2023/03/16 05:19:54;;;;;;;;;;;;;;;-0.47;100.00;101211.56;5136038;27;19941;-69
2023/03/16 05:22:19;;;;;;;;;;;;;;;-0.48;100.00;101209.88;5135486;27;20437;-69
2023/03/16 05:24:44;;;;;;;;;;;;;;;-0.45;100.00;101217.56;5136581;27;20023;-69
2023/03/16 05:27:10;;;;;;;;;;;;;;;-0.33;100.00;101226.53;5135637;27;19912;-69
2023/03/16 05:29:35;;;;;;;;;;;;;;;-0.25;99.40;101231.38;5136134;27;20271;-69
2023/03/16 05:32:00;;;;;;;;;;;;;;;-0.26;99.46;101229.69;5135143;27;19916;-67
2023/03/16 05:34:26;;;;;;;;;;;;;;;-0.19;99.68;101234.50;5134894;27;19973;-74
2023/03/16 05:36:51;;;;;;;;;;;;;;;-0.06;99.18;101237.28;5135653;27;19912;-70
2023/03/16 05:39:16;;;;;;;;;;;;;;;0.02;98.81;101250.84;5135190;27;20359;-68
2023/03/16 05:41:42;;;;;;;;;;;;;;;0.09;98.26;101252.19;5135697;27;19918;-69
2023/03/16 05:44:08;;;;;;;;;;;;;;;0.15;98.10;101262.31;5134969;27;20518;-68
2023/03/16 05:46:33;;;;;;;;;;;;;;;0.30;98.00;101258.03;5135494;27;19911;-69
2023/03/16 05:48:59;;;;;;;;;;;;;;;0.44;97.75;101267.72;5136736;27;19912;-69
2023/03/16 05:51:27;;;;;;;;;;;;;;;0.50;96.11;101270.00;5130619;27;19911;-67
2023/03/16 05:53:55;;;;;;;;;;;;;;;0.57;96.43;101279.19;5133464;27;20313;-70
2023/03/16 05:56:23;;;;;;;;;;;;;;;0.59;95.64;101285.22;5123084;27;20460;-68
2023/03/16 05:58:48;;;;;;;;;;;;;;;0.59;95.36;101283.47;5124463;27;19915;-69
2023/03/16 06:01:14;;;;;;;;;;;;;;;0.65;95.44;101287.50;5122185;27;19915;-70
2023/03/16 06:03:40;;;;;;;;;;;;;;;0.60;95.08;101289.53;5124591;27;19911;-69
2023/03/16 06:06:05;;;;;;;;;;;;;;;0.61;95.25;101288.63;5106777;28;19992;-69
2023/03/16 06:08:31;;;;;;;;;;;;;;;0.72;95.68;101299.31;5125711;27;19988;-67
2023/03/16 06:10:56;;;;;;;;;;;;;;;0.74;94.60;101300.09;5122252;27;19912;-69
2023/03/16 06:13:21;;;;;;;;;;;;;;;0.66;94.64;101299.69;5122622;27;19911;-69
2023/03/16 06:15:48;;;;;;;;;;;;;;;0.67;94.33;101311.00;5123648;27;19955;-69
2023/03/16 06:18:13;;;;;;;;;;;;;;;0.69;94.60;101312.59;5123414;27;20386;-68
2023/03/16 06:20:38;;;;;;;;;;;;;;;0.68;94.69;101318.78;5121713;27;19959;-69
2023/03/16 06:23:04;;;;;;;;;;;;;;;0.75;94.99;101317.50;5123838;27;20355;-69
2023/03/16 06:25:30;;;;;;;;;;;;;;;0.78;94.65;101314.72;5124051;27;20362;-68
2023/03/16 06:27:55;;;;;;;;;;;;;;;0.83;94.21;101317.06;5122156;27;19916;-67
2023/03/16 06:30:20;;;;;;;;;;;;;;;0.83;94.29;101328.41;5119947;27;19927;-68
2023/03/16 06:32:46;;;;;;;;;;;;;;;0.84;94.28;101330.09;5121085;27;19923;-68
2023/03/16 06:35:12;;;;;;;;;;;;;;;0.88;94.23;101330.78;5113703;28;19912;-68
2023/03/16 06:37:37;;;;;;;;;;;;;;;0.95;93.98;101336.53;5095567;28;19918;-69
2023/03/16 06:40:03;;;;;;;;;;;;;;;1.04;93.80;101343.84;5113480;28;19911;-69
2023/03/16 06:42:29;;;;;;;;;;;;;;;1.16;93.63;101343.19;5117947;28;19923;-69
2023/03/16 06:44:54;;;;;;;;;;;;;;;1.13;93.28;101343.31;5103228;27;19931;-67
2023/03/16 06:47:20;;;;;;;;;;;;;;;1.14;93.13;101345.84;5115883;28;19916;-69
2023/03/16 06:49:45;;;;;;;;;;;;;;;1.13;92.52;101340.69;5116234;28;19911;-69
2023/03/16 06:52:13;;;;;;;;;;;;;;;1.09;93.07;101347.06;5115020;28;20424;-68
2023/03/16 06:54:39;;;;;;;;;;;;;;;1.20;93.28;101352.56;5118658;28;20056;-68
2023/03/16 06:57:05;;;;;;;;;;;;;;;1.31;92.85;101363.25;5115472;28;19923;-68
2023/03/16 06:59:30;;;;;;;;;;;;;;;1.36;91.93;101370.88;5117975;28;19916;-70
2023/03/16 07:01:56;;;;;;;;;;;;;;;1.38;92.01;101377.72;5094395;28;20025;-68
2023/03/16 07:04:21;;;;;;;;;;;;;;;1.42;91.76;101376.59;5094832;28;19918;-69
2023/03/16 07:06:46;;;;;;;;;;;;;;;1.28;91.35;101379.19;5115655;28;19912;-68
2023/03/16 07:09:12;;;;;;;;;;;;;;;1.24;92.22;101375.06;5096556;28;20005;-67
2023/03/16 07:11:37;;;;;;;;;;;;;;;1.13;92.25;101374.81;5112948;28;19912;-69
2023/03/16 07:14:03;;;;;;;;;;;;;;;1.16;92.04;101390.41;5094309;28;19937;-68
2023/03/16 07:16:28;;;;;;;;;;;;;;;1.17;92.09;101381.59;5112536;28;19966;-67
2023/03/16 07:18:54;;;;;;;;;;;;;;;1.23;92.24;101389.13;5112987;28;20398;-67
2023/03/16 07:21:20;;;;;;;;;;;;;;;1.27;91.50;101384.53;5116254;28;19918;-68
2023/03/16 07:23:46;;;;;;;;;;;;;;;1.25;91.56;101389.88;5116422;28;20412;-69
2023/03/16 07:26:11;;;;;;;;;;;;;;;1.30;91.95;101394.84;5116646;28;19919;-68
2023/03/16 07:28:37;;;;;;;;;;;;;;;1.22;90.94;101401.38;5116389;28;19919;-70
2023/03/16 07:31:08;;;;;;;;;;;;;;;1.15;91.03;101404.41;5116005;27;19916;-69
2023/03/16 07:33:34;;;;;;;;;;;;;;;1.09;91.14;101404.78;5116058;28;20036;-67
2023/03/16 07:36:03;;;;;;;;;;;;;;;0.87;90.88;101407.75;5116383;28;20377;-69
2023/03/16 07:38:28;;;;;;;;;;;;;;;0.76;91.75;101421.44;5116214;28;20006;-69
2023/03/16 07:40:53;;;;;;;;;;;;;;;0.65;91.75;101421.19;5116613;28;20423;-68
2023/03/16 07:43:19;;;;;;;;;;;;;;;0.56;92.18;101419.03;5116210;28;19912;-70
2023/03/16 07:45:48;;;;;;;;;;;;;;;0.49;93.15;101422.94;5116181;28;20260;-69
2023/03/16 07:48:14;;;;;;;;;;;;;;;0.50;92.91;101425.47;5121289;28;19912;-69
2023/03/16 07:50:40;;;;;;;;;;;;;;;0.40;93.32;101428.66;5116601;28;19935;-69
2023/03/16 07:53:09;;;;;;;;;;;;;;;0.33;94.10;101422.06;5110060;27;19918;-68
2023/03/16 07:55:35;;;;;;;;;;;;;;;0.34;93.17;101439.47;5136954;27;20336;-68
2023/03/16 07:58:01;;;;;;;;;;;;;;;0.26;94.04;101432.00;5119511;27;19919;-68
2023/03/16 08:00:26;;;;;;;;;;;;;;;0.23;93.84;101434.78;5124020;27;19912;-71
2023/03/16 08:02:52;;;;;;;;;;;;;;;0.39;94.09;101438.31;5136924;27;19911;-70
2023/03/16 08:05:18;;;;;;;;;;;;;;;0.50;93.75;101435.94;5136511;27;20300;-68
2023/03/16 08:07:43;;;;;;;;;;;;;;;0.58;94.03;101433.78;5136144;27;19956;-68
2023/03/16 08:10:10;;;;;;;;;;;;;;;0.69;93.16;101435.81;5136299;27;20370;-67
2023/03/16 08:12:35;;;;;;;;;;;;;;;0.86;92.88;101438.34;5136276;27;19912;-67
2023/03/16 08:15:01;;;;;;;;;;;;;;;1.08;92.95;101442.44;5136120;27;19957;-67
2023/03/16 08:17:26;;;;;;;;;;;;;;;1.10;91.61;101441.41;5135985;27;19957;-66
2023/03/16 08:19:52;;;;;;;;;;;;;;;1.09;91.66;101452.84;5135854;27;19919;-66
2023/03/16 08:22:17;;;;;;;;;;;;;;;1.12;91.56;101454.44;5135865;27;19918;-67
2023/03/16 08:24:43;;;;;;;;;;;;;;;1.24;91.64;101459.03;5117430;27;19920;-65
2023/03/16 08:27:08;;;;;;;;;;;;;;;1.39;91.39;101463.38;5136386;27;19915;-63
2023/03/16 08:29:33;;;;;;;;;;;;;;;1.50;90.36;101463.66;5136972;27;19911;-66
2023/03/16 08:31:59;;;;;;;;;;;;;;;1.57;90.45;101465.91;5135513;27;19915;-67
2023/03/16 08:34:25;;;;;;;;;;;;;;;1.51;89.84;101467.97;5135780;27;19958;-66
2023/03/16 08:36:51;;;;;;;;;;;;;;;1.36;88.29;101481.94;5135544;27;19911;-66
2023/03/16 08:39:16;;;;;;;;;;;;;;;1.33;88.14;101482.13;5135749;27;19918;-67
2023/03/16 08:41:42;;;;;;;;;;;;;;;1.26;88.00;101478.16;5117104;27;19911;-66
2023/03/16 08:44:07;;;;;;;;;;;;;;;1.24;87.08;101480.00;5135427;27;19923;-66
2023/03/16 08:46:33;;;;;;;;;;;;;;;1.34;87.74;101489.06;5135587;27;19936;-66
2023/03/16 08:48:58;;;;;;;;;;;;;;;1.37;86.55;101494.13;5135913;27;20319;-67
2023/03/16 08:51:24;;;;;;;;;;;;;;;1.36;86.23;101505.56;5135904;27;20002;-65
2023/03/16 08:53:49;;;;;;;;;;;;;;;1.33;85.79;101499.63;5135384;27;19912;-67
2023/03/16 08:56:14;;;;;;;;;;;;;;;1.33;86.74;101500.47;5135332;27;19921;-68
2023/03/16 08:58:44;;;;;;;;;;;;;;;1.41;86.82;101508.75;5135265;27;20010;-68
2023/03/16 09:01:11;;;;;;;;;;;;;;;1.52;85.04;101505.56;5135387;27;20257;-68
2023/03/16 09:03:36;;;;;;;;;;;;;;;1.59;84.74;101508.69;5135277;27;19942;-68
2023/03/16 09:06:03;;;;;;;;;;;;;;;1.59;84.48;101516.56;5135266;27;19911;-67
2023/03/16 09:08:28;;;;;;;;;;;;;;;1.63;84.16;101518.06;5134979;27;19911;-68
2023/03/16 09:11:04;;;;;;;;;;;;;;;1.72;83.86;101520.16;5135072;27;19965;-67
2023/03/16 09:13:30;;;;;;;;;;;;;;;1.87;84.02;101516.69;5134860;27;20007;-68
2023/03/16 09:15:56;;;;;;;;;;;;;;;1.86;82.41;101520.25;5134630;27;20010;-67
2023/03/16 09:18:23;;;;;;;;;;;;;;;1.92;82.28;101524.28;5135614;27;19919;-72
2023/03/16 09:20:48;;;;;;;;;;;;;;;2.05;82.12;101526.13;5117413;27;19911;-67
2023/03/16 09:23:14;;;;;;;;;;;;;;;2.06;80.31;101530.44;5134829;27;20282;-69
2023/03/16 09:25:39;;;;;;;;;;;;;;;2.11;80.76;101527.56;5134759;27;19988;-66
2023/03/16 09:28:04;;;;;;;;;;;;;;;2.06;79.02;101538.34;5134625;27;20304;-68
2023/03/16 09:30:35;;;;;;;;;;;;;;;2.18;79.65;101529.72;5134289;27;20217;-66
2023/03/16 09:33:00;;;;;;;;;;;;;;;2.29;79.59;101529.06;5116424;27;19922;-65
2023/03/16 09:35:25;;;;;;;;;;;;;;;2.45;78.59;101536.91;5134598;27;19912;-72
2023/03/16 09:37:51;;;;;;;;;;;;;;;2.58;76.94;101537.84;5134582;27;19912;-70
2023/03/16 09:40:21;;;;;;;;;;;;;;;2.61;74.89;101545.59;5134490;27;20212;-73
2023/03/16 09:42:58;;;;;;;;;;;;;;;2.57;75.67;101544.06;5134149;27;20002;-67
2023/03/16 09:45:42;;;;;;;;;;;;;;;2.52;75.79;101546.13;5134501;27;19919;-69
2023/03/16 09:48:08;;;;;;;;;;;;;;;2.65;76.39;101556.75;5134290;27;20006;-72
2023/03/16 09:50:36;;;;;;;;;;;;;;;2.78;75.86;101558.53;5133341;27;19918;-70
2023/03/16 09:53:17;;;;;;;;;;;;;;;3.05;76.35;101563.91;5134172;27;19912;-70
2023/03/16 09:55:46;;;;;;;;;;;;;;;3.21;76.56;101561.19;5127014;27;19918;-71
2023/03/16 09:58:15;;;;;;;;;;;;;;;3.30;74.25;101571.13;5113643;28;19916;-73
2023/03/16 10:00:45;;;;;;;;;;;;;;;3.47;74.40;101558.66;5113415;28;20422;-69
2023/03/16 10:03:10;;;;;;;;;;;;;;;3.37;72.25;101567.16;5113725;28;19937;-71
2023/03/16 10:05:37;;;;;;;;;;;;;;;3.16;73.31;101557.97;5094708;28;19912;-71
2023/03/16 10:08:19;;;;;;;;;;;;;;;3.01;74.65;101569.47;5112647;28;19912;-70
2023/03/16 10:10:51;;;;;;;;;;;;;;;2.90;75.21;101566.66;5113231;28;19972;-70
2023/03/16 10:13:55;;;;;;;;;;;;;;;2.66;75.90;101564.56;5113142;28;19938;-70
2023/03/16 10:16:37;;;;;;;;;;;;;;;2.67;77.03;101578.56;5030284;28;20418;-70
2023/03/16 10:19:10;;;;;;;;;;;;;;;2.75;78.30;101577.16;5030459;28;20293;-71
2023/03/16 10:21:38;;;;;;;;;;;;;;;2.60;78.06;101591.22;5081731;28;20363;-69
2023/03/16 10:24:08;;;;;;;;;;;;;;;2.35;79.24;101597.09;5124716;27;19915;-70
2023/03/16 10:26:43;;;;;;;;;;;;;;;2.24;80.49;101594.22;5123632;27;19943;-70
2023/03/16 10:29:11;;;;;;;;;;;;;;;2.30;81.51;101593.00;5114449;28;20290;-69
2023/03/16 10:31:40;;;;;;;;;;;;;;;2.31;80.12;101598.16;5113578;28;20004;-70
2023/03/16 10:34:05;;;;;;;;;;;;;;;2.35;78.95;101590.97;5114137;28;20010;-70
2023/03/16 10:36:33;;;;;;;;;;;;;;;2.45;78.73;101597.38;5113786;28;19954;-70
2023/03/16 10:39:06;;;;;;;;;;;;;;;2.53;78.19;101605.66;5116528;28;19916;-72
2023/03/16 10:41:37;;;;;;;;;;;;;;;2.55;78.01;101602.94;5113308;28;19911;-68
2023/03/16 10:44:10;;;;;;;;;;;;;;;2.60;77.81;101609.66;5114175;28;19912;-68
2023/03/16 10:46:36;;;;;;;;;;;;;;;2.49;74.29;101606.78;5114588;28;20390;-71
2023/03/16 10:49:01;;;;;;;;;;;;;;;2.32;71.24;101609.56;5097527;28;19912;-70
2023/03/16 10:51:29;;;;;;;;;;;;;;;2.34;73.45;101615.56;5079298;28;19934;-69
2023/03/16 10:54:05;;;;;;;;;;;;;;;2.37;73.56;101612.78;5113451;28;19956;-69
2023/03/16 10:56:32;;;;;;;;;;;;;;;2.43;73.03;101618.50;5095398;28;19912;-69
2023/03/16 10:58:59;;;;;;;;;;;;;;;2.57;74.25;101622.94;5114333;28;20022;-69
2023/03/16 11:01:27;;;;;;;;;;;;;;;2.62;73.80;101630.59;5096994;28;19911;-69
2023/03/16 11:03:54;;;;;;;;;;;;;;;2.66;74.90;101643.47;5115273;28;19965;-70
2023/03/16 11:06:29;;;;;;;;;;;;;;;2.65;75.67;101633.88;5115313;28;19923;-69
2023/03/16 11:09:01;;;;;;;;;;;;;;;2.89;74.46;101638.59;5114166;28;19912;-69
2023/03/16 11:11:28;;;;;;;;;;;;;;;2.93;70.64;101640.13;5113322;28;19911;-71
2023/03/16 11:13:58;;;;;;;;;;;;;;;2.91;71.08;101637.59;5094532;28;19916;-67
2023/03/16 11:16:29;;;;;;;;;;;;;;;2.94;71.47;101644.47;5112354;28;19916;-68
2023/03/16 11:18:56;;;;;;;;;;;;;;;2.75;70.16;101645.53;5112665;28;19911;-69
2023/03/16 11:21:40;;;;;;;;;;;;;;;2.75;70.61;101642.06;5112427;28;19926;-68
2023/03/16 11:24:09;;;;;;;;;;;;;;;2.56;68.69;101647.53;5112614;28;19912;-69
2023/03/16 11:26:38;;;;;;;;;;;;;;;2.46;69.84;101654.28;5112411;28;19911;-70
2023/03/16 11:29:15;;;;;;;;;;;;;;;2.43;69.37;101660.56;5112621;28;19912;-68
2023/03/16 11:31:49;;;;;;;;;;;;;;;2.47;71.28;101658.59;5112881;28;19937;-69
2023/03/16 11:34:16;;;;;;;;;;;;;;;2.45;71.59;101666.59;5112434;28;19923;-69
2023/03/16 11:36:42;;;;;;;;;;;;;;;2.45;72.10;101665.75;5112330;28;19969;-69
2023/03/16 11:39:19;;;;;;;;;;;;;;;2.53;72.62;101667.91;5112153;28;19963;-69
2023/03/16 11:41:48;;;;;;;;;;;;;;;2.59;70.92;101667.56;5112456;28;19919;-69
2023/03/16 11:44:54;;;;;;;;;;;;;;;2.64;70.03;101678.69;5113288;28;19926;-68
2023/03/16 11:47:28;;;;;;;;;;;;;;;2.61;69.67;101673.59;5030430;28;19940;-71
2023/03/16 11:50:00;;;;;;;;;;;;;;;2.63;69.64;101674.34;5028380;28;19932;-68
2023/03/16 11:52:26;;;;;;;;;;;;;;;2.57;70.46;101674.69;5075641;28;19919;-67
2023/03/16 11:55:08;;;;;;;;;;;;;;;2.48;72.52;101690.06;5110712;28;20003;-68
2023/03/16 11:57:39;;;;;;;;;;;;;;;2.36;74.42;101682.91;5112090;28;20052;-68
2023/03/16 12:00:20;;;;;;;;;;;;;;;2.25;75.27;101687.91;5111992;28;19923;-68
2023/03/16 12:03:03;;;;;;;;;;;;;;;2.14;74.71;101693.75;5112567;28;19912;-68
2023/03/16 12:05:29;;;;;;;;;;;;;;;2.18;74.23;101700.53;5112020;28;19916;-68
2023/03/16 12:08:00;;;;;;;;;;;;;;;2.17;72.10;101696.22;5115903;28;19912;-71
2023/03/16 12:10:46;;;;;;;;;;;;;;;2.15;69.57;101700.72;5116799;28;19919;-71
2023/03/16 12:13:32;;;;;;;;;;;;;;;2.14;59.16;101699.03;5081478;28;19912;-70
2023/03/16 12:16:04;;;;;;;;;;;;;;;2.07;59.13;101697.69;5098292;28;20309;-68
2023/03/16 12:18:42;;;;;;;;;;;;;;;2.07;58.35;101700.31;5116371;28;19919;-68
2023/03/16 12:21:13;;;;;;;;;;;;;;;2.16;59.70;101699.78;5116028;28;19912;-66
2023/03/16 12:24:02;;;;;;;;;;;;;;;2.23;61.04;101709.94;5116188;28;19922;-67
2023/03/16 12:26:31;;;;;;;;;;;;;;;2.24;62.22;101719.53;5104560;28;19912;-68
2023/03/16 12:28:58;;;;;;;;;;;;;;;2.21;60.34;101715.28;5115258;28;20235;-69
2023/03/16 12:31:34;;;;;;;;;;;;;;;2.20;58.80;101712.75;5115495;28;20044;-68
2023/03/16 12:33:59;;;;;;;;;;;;;;;2.27;58.01;101714.94;5116253;28;19919;-76
2023/03/16 12:36:25;;;;;;;;;;;;;;;2.29;58.36;101717.47;5115600;28;19976;-69
2023/03/16 12:39:02;;;;;;;;;;;;;;;2.20;57.92;101723.25;5097302;28;19912;-68
2023/03/16 12:41:32;;;;;;;;;;;;;;;2.17;56.69;101724.28;5115614;28;19962;-68
2023/03/16 12:44:00;;;;;;;;;;;;;;;2.27;56.97;101728.09;5115414;28;19912;-68
2023/03/16 12:46:30;;;;;;;;;;;;;;;2.35;56.38;101727.66;5115989;28;19918;-68